sensor_id;sensor_type;location;lat;lon;timestamp;temperature;humidity
16736;DHT22;17990;49.548;9.730;2023-05-18T00:00:44;6.80;99.90
16736;DHT22;17990;49.548;9.730;2023-05-18T00:03:11;6.70;99.90
16736;DHT22;17990;49.548;9.730;2023-05-18T00:05:38;6.70;99.90
16736;DHT22;17990;49.548;9.730;2023-05-18T00:08:07;6.70;99.90
16736;DHT22;17990;49.548;9.730;2023-05-18T00:10:35;6.60;99.90
16736;DHT22;17990;49.548;9.730;2023-05-18T00:13:02;6.60;99.90
16736;DHT22;17990;49.548;9.730;2023-05-18T00:15:29;6.60;99.90
16736;DHT22;17990;49.548;9.730;2023-05-18T00:17:56;6.50;99.90
16736;DHT22;17990;49.548;9.730;2023-05-18T00:20:23;6.50;99.90
16736;DHT22;17990;49.548;9.730;2023-05-18T00:22:51;6.50;99.90
16736;DHT22;17990;49.548;9.730;2023-05-18T00:25:18;6.50;99.90
16736;DHT22;17990;49.548;9.730;2023-05-18T00:27:46;6.50;99.90
16736;DHT22;17990;49.548;9.730;2023-05-18T00:30:16;6.50;99.90
16736;DHT22;17990;49.548;9.730;2023-05-18T00:32:43;6.50;99.90
16736;DHT22;17990;49.548;9.730;2023-05-18T00:35:10;6.50;99.90
16736;DHT22;17990;49.548;9.730;2023-05-18T00:37:37;6.50;99.90
16736;DHT22;17990;49.548;9.730;2023-05-18T00:40:05;6.50;99.90
16736;DHT22;17990;49.548;9.730;2023-05-18T00:42:33;6.50;99.90
16736;DHT22;17990;49.548;9.730;2023-05-18T00:45:01;6.40;99.90
16736;DHT22;17990;49.548;9.730;2023-05-18T00:47:29;6.40;99.90
16736;DHT22;17990;49.548;9.730;2023-05-18T00:49:56;6.40;99.90
16736;DHT22;17990;49.548;9.730;2023-05-18T00:52:23;6.30;99.90
16736;DHT22;17990;49.548;9.730;2023-05-18T00:54:50;6.40;99.90
16736;DHT22;17990;49.548;9.730;2023-05-18T00:57:18;6.30;99.90
16736;DHT22;17990;49.548;9.730;2023-05-18T00:59:45;6.30;99.90
16736;DHT22;17990;49.548;9.730;2023-05-18T01:02:14;6.20;99.90
16736;DHT22;17990;49.548;9.730;2023-05-18T01:04:41;6.20;99.90
16736;DHT22;17990;49.548;9.730;2023-05-18T01:07:09;6.10;99.90
16736;DHT22;17990;49.548;9.730;2023-05-18T01:09:37;6.10;99.90
16736;DHT22;17990;49.548;9.730;2023-05-18T01:12:11;6.10;99.90
16736;DHT22;17990;49.548;9.730;2023-05-18T01:14:47;6.10;99.90
16736;DHT22;17990;49.548;9.730;2023-05-18T01:17:22;6.00;99.90
16736;DHT22;17990;49.548;9.730;2023-05-18T01:20:05;6.00;99.90
16736;DHT22;17990;49.548;9.730;2023-05-18T01:23:05;6.00;99.90
16736;DHT22;17990;49.548;9.730;2023-05-18T01:25:46;5.90;99.90
16736;DHT22;17990;49.548;9.730;2023-05-18T01:28:19;5.80;99.90
16736;DHT22;17990;49.548;9.730;2023-05-18T01:30:47;5.80;99.90
16736;DHT22;17990;49.548;9.730;2023-05-18T01:33:14;5.70;99.90
16736;DHT22;17990;49.548;9.730;2023-05-18T01:35:41;5.70;99.90
16736;DHT22;17990;49.548;9.730;2023-05-18T01:38:13;5.70;99.90
16736;DHT22;17990;49.548;9.730;2023-05-18T01:40:47;5.70;99.90
16736;DHT22;17990;49.548;9.730;2023-05-18T01:43:22;5.60;99.90
16736;DHT22;17990;49.548;9.730;2023-05-18T01:45:55;5.60;99.90
16736;DHT22;17990;49.548;9.730;2023-05-18T01:48:24;5.60;99.90
16736;DHT22;17990;49.548;9.730;2023-05-18T01:50:54;5.60;99.90
16736;DHT22;17990;49.548;9.730;2023-05-18T01:53:25;5.50;99.90
16736;DHT22;17990;49.548;9.730;2023-05-18T01:55:54;5.50;99.90
16736;DHT22;17990;49.548;9.730;2023-05-18T01:58:23;5.40;99.90
16736;DHT22;17990;49.548;9.730;2023-05-18T02:00:50;5.40;99.90
16736;DHT22;17990;49.548;9.730;2023-05-18T02:03:17;5.30;99.90
16736;DHT22;17990;49.548;9.730;2023-05-18T02:05:44;5.30;99.90
16736;DHT22;17990;49.548;9.730;2023-05-18T02:08:11;5.20;99.90
16736;DHT22;17990;49.548;9.730;2023-05-18T02:10:38;5.20;99.90
16736;DHT22;17990;49.548;9.730;2023-05-18T02:13:05;5.10;99.90
16736;DHT22;17990;49.548;9.730;2023-05-18T02:15:33;5.10;99.90
16736;DHT22;17990;49.548;9.730;2023-05-18T02:18:00;5.10;99.90
16736;DHT22;17990;49.548;9.730;2023-05-18T02:20:27;5.00;99.90
16736;DHT22;17990;49.548;9.730;2023-05-18T02:22:57;5.00;99.90
16736;DHT22;17990;49.548;9.730;2023-05-18T02:25:24;5.00;99.90
16736;DHT22;17990;49.548;9.730;2023-05-18T02:27:51;5.00;99.90
16736;DHT22;17990;49.548;9.730;2023-05-18T02:30:19;5.00;99.90
16736;DHT22;17990;49.548;9.730;2023-05-18T02:32:47;5.00;99.90
16736;DHT22;17990;49.548;9.730;2023-05-18T02:35:15;5.00;99.90
16736;DHT22;17990;49.548;9.730;2023-05-18T02:37:42;5.00;99.90
16736;DHT22;17990;49.548;9.730;2023-05-18T02:40:10;5.00;99.90
16736;DHT22;17990;49.548;9.730;2023-05-18T02:42:38;5.00;99.90
16736;DHT22;17990;49.548;9.730;2023-05-18T02:45:05;5.00;99.90
16736;DHT22;17990;49.548;9.730;2023-05-18T02:47:33;5.00;99.90
16736;DHT22;17990;49.548;9.730;2023-05-18T02:50:02;4.90;99.90
16736;DHT22;17990;49.548;9.730;2023-05-18T02:52:29;4.90;99.90
16736;DHT22;17990;49.548;9.730;2023-05-18T02:54:58;4.90;99.90
16736;DHT22;17990;49.548;9.730;2023-05-18T02:57:25;4.80;99.90
16736;DHT22;17990;49.548;9.730;2023-05-18T02:59:52;4.70;99.90
16736;DHT22;17990;49.548;9.730;2023-05-18T03:02:19;4.50;99.90
16736;DHT22;17990;49.548;9.730;2023-05-18T03:04:48;4.50;99.90
16736;DHT22;17990;49.548;9.730;2023-05-18T03:07:19;4.30;99.90
16736;DHT22;17990;49.548;9.730;2023-05-18T03:09:46;4.30;99.90
16736;DHT22;17990;49.548;9.730;2023-05-18T03:12:13;4.20;99.90
16736;DHT22;17990;49.548;9.730;2023-05-18T03:14:40;4.20;99.90
16736;DHT22;17990;49.548;9.730;2023-05-18T03:17:07;4.20;99.90
16736;DHT22;17990;49.548;9.730;2023-05-18T03:19:34;4.10;99.90
16736;DHT22;17990;49.548;9.730;2023-05-18T03:22:00;4.10;99.90
16736;DHT22;17990;49.548;9.730;2023-05-18T03:24:29;4.00;99.90
16736;DHT22;17990;49.548;9.730;2023-05-18T03:27:05;3.90;99.90
16736;DHT22;17990;49.548;9.730;2023-05-18T03:29:32;3.80;99.90
16736;DHT22;17990;49.548;9.730;2023-05-18T03:31:59;3.70;99.90
16736;DHT22;17990;49.548;9.730;2023-05-18T03:34:26;3.60;99.90
16736;DHT22;17990;49.548;9.730;2023-05-18T03:36:54;3.60;99.90
16736;DHT22;17990;49.548;9.730;2023-05-18T03:39:22;3.60;99.90
16736;DHT22;17990;49.548;9.730;2023-05-18T03:41:50;3.50;99.90
16736;DHT22;17990;49.548;9.730;2023-05-18T03:44:17;3.60;99.90
16736;DHT22;17990;49.548;9.730;2023-05-18T03:46:44;3.60;99.90
16736;DHT22;17990;49.548;9.730;2023-05-18T03:49:11;3.70;99.90
16736;DHT22;17990;49.548;9.730;2023-05-18T03:51:38;3.80;99.90
16736;DHT22;17990;49.548;9.730;2023-05-18T03:54:05;3.90;99.90
16736;DHT22;17990;49.548;9.730;2023-05-18T03:56:32;4.00;99.90
16736;DHT22;17990;49.548;9.730;2023-05-18T03:59:00;4.00;99.90
16736;DHT22;17990;49.548;9.730;2023-05-18T04:01:29;4.00;99.90
16736;DHT22;17990;49.548;9.730;2023-05-18T04:03:57;4.00;99.90
16736;DHT22;17990;49.548;9.730;2023-05-18T04:06:24;4.10;99.90
16736;DHT22;17990;49.548;9.730;2023-05-18T04:08:51;4.20;99.90
16736;DHT22;17990;49.548;9.730;2023-05-18T04:11:19;4.30;99.90
16736;DHT22;17990;49.548;9.730;2023-05-18T04:13:47;4.50;99.90
16736;DHT22;17990;49.548;9.730;2023-05-18T04:16:16;4.60;99.90
16736;DHT22;17990;49.548;9.730;2023-05-18T04:18:43;4.60;99.90
16736;DHT22;17990;49.548;9.730;2023-05-18T04:21:10;4.70;99.90
16736;DHT22;17990;49.548;9.730;2023-05-18T04:23:37;4.70;99.90
16736;DHT22;17990;49.548;9.730;2023-05-18T04:26:05;4.70;99.90
16736;DHT22;17990;49.548;9.730;2023-05-18T04:28:32;4.80;99.90
16736;DHT22;17990;49.548;9.730;2023-05-18T04:30:59;4.80;99.90
16736;DHT22;17990;49.548;9.730;2023-05-18T04:33:28;4.80;99.90
16736;DHT22;17990;49.548;9.730;2023-05-18T04:35:55;4.80;99.90
16736;DHT22;17990;49.548;9.730;2023-05-18T04:38:23;4.90;99.90
16736;DHT22;17990;49.548;9.730;2023-05-18T04:40:50;4.80;99.90
16736;DHT22;17990;49.548;9.730;2023-05-18T04:43:18;4.90;99.90
16736;DHT22;17990;49.548;9.730;2023-05-18T04:45:46;4.80;99.90
16736;DHT22;17990;49.548;9.730;2023-05-18T04:48:15;4.90;99.90
16736;DHT22;17990;49.548;9.730;2023-05-18T04:50:45;5.00;99.90
16736;DHT22;17990;49.548;9.730;2023-05-18T04:53:11;5.20;99.90
16736;DHT22;17990;49.548;9.730;2023-05-18T04:55:42;5.30;99.90
16736;DHT22;17990;49.548;9.730;2023-05-18T04:58:10;5.50;99.90
16736;DHT22;17990;49.548;9.730;2023-05-18T05:00:37;5.60;99.90
16736;DHT22;17990;49.548;9.730;2023-05-18T05:03:04;5.60;99.90
16736;DHT22;17990;49.548;9.730;2023-05-18T05:05:31;5.60;99.90
16736;DHT22;17990;49.548;9.730;2023-05-18T05:07:59;5.50;99.90
16736;DHT22;17990;49.548;9.730;2023-05-18T05:10:29;5.60;99.90
16736;DHT22;17990;49.548;9.730;2023-05-18T05:12:56;5.80;99.90
16736;DHT22;17990;49.548;9.730;2023-05-18T05:15:22;6.00;99.90
16736;DHT22;17990;49.548;9.730;2023-05-18T05:17:49;6.20;99.90
16736;DHT22;17990;49.548;9.730;2023-05-18T05:20:16;6.40;99.90
16736;DHT22;17990;49.548;9.730;2023-05-18T05:22:44;6.60;99.90
16736;DHT22;17990;49.548;9.730;2023-05-18T05:25:12;6.90;99.90
16736;DHT22;17990;49.548;9.730;2023-05-18T05:27:39;7.20;99.90
16736;DHT22;17990;49.548;9.730;2023-05-18T05:30:07;8.50;99.90
16736;DHT22;17990;49.548;9.730;2023-05-18T05:32:34;9.80;99.90
16736;DHT22;17990;49.548;9.730;2023-05-18T05:35:01;10.80;99.90
16736;DHT22;17990;49.548;9.730;2023-05-18T05:37:29;13.50;99.90
16736;DHT22;17990;49.548;9.730;2023-05-18T05:39:55;16.00;99.90
16736;DHT22;17990;49.548;9.730;2023-05-18T05:42:25;17.60;99.90
16736;DHT22;17990;49.548;9.730;2023-05-18T05:44:51;18.90;99.20
16736;DHT22;17990;49.548;9.730;2023-05-18T05:47:18;18.90;96.70
16736;DHT22;17990;49.548;9.730;2023-05-18T05:49:45;19.40;95.30
16736;DHT22;17990;49.548;9.730;2023-05-18T05:52:12;18.50;95.20
16736;DHT22;17990;49.548;9.730;2023-05-18T05:54:39;18.00;96.10
16736;DHT22;17990;49.548;9.730;2023-05-18T05:57:06;19.40;94.20
16736;DHT22;17990;49.548;9.730;2023-05-18T05:59:34;19.70;92.90
16736;DHT22;17990;49.548;9.730;2023-05-18T06:02:01;18.70;93.50
16736;DHT22;17990;49.548;9.730;2023-05-18T06:04:28;17.90;94.10
16736;DHT22;17990;49.548;9.730;2023-05-18T06:06:55;18.00;94.40
16736;DHT22;17990;49.548;9.730;2023-05-18T06:09:22;19.10;92.80
16736;DHT22;17990;49.548;9.730;2023-05-18T06:11:49;18.80;92.00
16736;DHT22;17990;49.548;9.730;2023-05-18T06:14:17;19.60;90.70
16736;DHT22;17990;49.548;9.730;2023-05-18T06:16:45;20.10;89.40
16736;DHT22;17990;49.548;9.730;2023-05-18T06:19:12;20.40;87.00
16736;DHT22;17990;49.548;9.730;2023-05-18T06:21:39;20.50;86.40
16736;DHT22;17990;49.548;9.730;2023-05-18T06:24:06;20.50;85.70
16736;DHT22;17990;49.548;9.730;2023-05-18T06:26:33;19.50;87.20
16736;DHT22;17990;49.548;9.730;2023-05-18T06:29:00;19.60;87.70
16736;DHT22;17990;49.548;9.730;2023-05-18T06:31:27;19.90;86.00
16736;DHT22;17990;49.548;9.730;2023-05-18T06:33:56;19.70;86.60
16736;DHT22;17990;49.548;9.730;2023-05-18T06:36:23;21.00;83.90
16736;DHT22;17990;49.548;9.730;2023-05-18T06:38:49;21.60;80.10
16736;DHT22;17990;49.548;9.730;2023-05-18T06:41:16;22.40;78.90
16736;DHT22;17990;49.548;9.730;2023-05-18T06:43:43;21.60;78.90
16736;DHT22;17990;49.548;9.730;2023-05-18T06:46:18;21.80;79.50
16736;DHT22;17990;49.548;9.730;2023-05-18T06:48:46;23.60;75.00
16736;DHT22;17990;49.548;9.730;2023-05-18T06:51:14;21.90;77.20
16736;DHT22;17990;49.548;9.730;2023-05-18T06:53:41;23.10;74.80
16736;DHT22;17990;49.548;9.730;2023-05-18T06:56:08;23.80;72.30
16736;DHT22;17990;49.548;9.730;2023-05-18T06:58:36;24.80;69.90
16736;DHT22;17990;49.548;9.730;2023-05-18T07:01:03;23.60;70.30
16736;DHT22;17990;49.548;9.730;2023-05-18T07:03:30;24.60;69.40
16736;DHT22;17990;49.548;9.730;2023-05-18T07:05:57;25.40;66.10
16736;DHT22;17990;49.548;9.730;2023-05-18T07:08:26;24.50;66.80
16736;DHT22;17990;49.548;9.730;2023-05-18T07:10:53;24.70;66.90
16736;DHT22;17990;49.548;9.730;2023-05-18T07:13:22;24.30;67.10
16736;DHT22;17990;49.548;9.730;2023-05-18T07:15:49;23.90;66.60
16736;DHT22;17990;49.548;9.730;2023-05-18T07:18:16;22.70;69.40
16736;DHT22;17990;49.548;9.730;2023-05-18T07:20:43;23.20;69.00
16736;DHT22;17990;49.548;9.730;2023-05-18T07:23:10;25.20;64.10
16736;DHT22;17990;49.548;9.730;2023-05-18T07:25:38;23.40;67.80
16736;DHT22;17990;49.548;9.730;2023-05-18T07:28:05;24.10;65.40
16736;DHT22;17990;49.548;9.730;2023-05-18T07:30:32;25.90;62.90
16736;DHT22;17990;49.548;9.730;2023-05-18T07:32:59;27.20;59.40
16736;DHT22;17990;49.548;9.730;2023-05-18T07:35:26;26.40;59.90
16736;DHT22;17990;49.548;9.730;2023-05-18T07:37:53;26.90;59.50
16736;DHT22;17990;49.548;9.730;2023-05-18T07:40:20;26.00;59.50
16736;DHT22;17990;49.548;9.730;2023-05-18T07:42:48;24.60;62.50
16736;DHT22;17990;49.548;9.730;2023-05-18T07:45:15;24.30;63.50
16736;DHT22;17990;49.548;9.730;2023-05-18T07:47:42;24.20;63.20
16736;DHT22;17990;49.548;9.730;2023-05-18T07:50:09;25.70;60.80
16736;DHT22;17990;49.548;9.730;2023-05-18T07:52:36;23.40;64.60
16736;DHT22;17990;49.548;9.730;2023-05-18T07:55:04;22.30;68.00
16736;DHT22;17990;49.548;9.730;2023-05-18T07:57:33;22.90;67.00
16736;DHT22;17990;49.548;9.730;2023-05-18T08:00:02;23.40;65.00
16736;DHT22;17990;49.548;9.730;2023-05-18T08:02:30;22.90;66.00
16736;DHT22;17990;49.548;9.730;2023-05-18T08:04:58;23.00;65.40
16736;DHT22;17990;49.548;9.730;2023-05-18T08:07:27;23.70;64.40
16736;DHT22;17990;49.548;9.730;2023-05-18T08:09:54;22.60;66.10
16736;DHT22;17990;49.548;9.730;2023-05-18T08:12:21;22.20;67.40
16736;DHT22;17990;49.548;9.730;2023-05-18T08:14:49;21.60;69.80
16736;DHT22;17990;49.548;9.730;2023-05-18T08:17:17;21.70;69.00
16736;DHT22;17990;49.548;9.730;2023-05-18T08:19:45;21.50;70.90
16736;DHT22;17990;49.548;9.730;2023-05-18T08:22:12;20.80;71.50
16736;DHT22;17990;49.548;9.730;2023-05-18T08:24:39;21.00;71.30
16736;DHT22;17990;49.548;9.730;2023-05-18T08:27:06;21.90;70.00
16736;DHT22;17990;49.548;9.730;2023-05-18T08:29:35;21.10;71.40
16736;DHT22;17990;49.548;9.730;2023-05-18T08:32:04;20.60;73.20
16736;DHT22;17990;49.548;9.730;2023-05-18T08:34:33;20.30;73.40
16736;DHT22;17990;49.548;9.730;2023-05-18T08:37:01;19.30;75.50
16736;DHT22;17990;49.548;9.730;2023-05-18T08:39:28;19.60;77.20
16736;DHT22;17990;49.548;9.730;2023-05-18T08:42:00;19.80;74.70
16736;DHT22;17990;49.548;9.730;2023-05-18T08:44:32;19.20;76.40
16736;DHT22;17990;49.548;9.730;2023-05-18T08:47:02;20.00;75.40
16736;DHT22;17990;49.548;9.730;2023-05-18T08:49:34;19.70;75.00
16736;DHT22;17990;49.548;9.730;2023-05-18T08:52:03;19.00;75.90
16736;DHT22;17990;49.548;9.730;2023-05-18T08:54:32;18.70;77.40
16736;DHT22;17990;49.548;9.730;2023-05-18T08:57:01;18.40;78.80
16736;DHT22;17990;49.548;9.730;2023-05-18T08:59:30;18.30;79.80
16736;DHT22;17990;49.548;9.730;2023-05-18T09:01:59;17.80;80.60
16736;DHT22;17990;49.548;9.730;2023-05-18T09:04:26;17.20;82.20
16736;DHT22;17990;49.548;9.730;2023-05-18T09:06:55;17.40;81.80
16736;DHT22;17990;49.548;9.730;2023-05-18T09:09:24;17.80;81.90
16736;DHT22;17990;49.548;9.730;2023-05-18T09:11:52;18.10;81.40
16736;DHT22;17990;49.548;9.730;2023-05-18T09:14:20;18.30;81.10
16736;DHT22;17990;49.548;9.730;2023-05-18T09:16:50;17.90;80.40
16736;DHT22;17990;49.548;9.730;2023-05-18T09:19:17;17.50;81.80
16736;DHT22;17990;49.548;9.730;2023-05-18T09:21:45;17.50;81.10
16736;DHT22;17990;49.548;9.730;2023-05-18T09:24:13;17.50;80.80
16736;DHT22;17990;49.548;9.730;2023-05-18T09:26:40;17.80;81.30
16736;DHT22;17990;49.548;9.730;2023-05-18T09:29:14;17.90;81.10
16736;DHT22;17990;49.548;9.730;2023-05-18T09:31:43;18.30;79.20
16736;DHT22;17990;49.548;9.730;2023-05-18T09:34:11;17.80;79.70
16736;DHT22;17990;49.548;9.730;2023-05-18T09:36:38;17.30;81.10
16736;DHT22;17990;49.548;9.730;2023-05-18T09:39:06;17.60;80.50
16736;DHT22;17990;49.548;9.730;2023-05-18T09:41:37;18.10;79.90
16736;DHT22;17990;49.548;9.730;2023-05-18T09:44:05;18.40;78.80
16736;DHT22;17990;49.548;9.730;2023-05-18T09:46:34;18.90;77.70
16736;DHT22;17990;49.548;9.730;2023-05-18T09:49:03;18.40;78.60
16736;DHT22;17990;49.548;9.730;2023-05-18T09:51:33;18.60;78.80
16736;DHT22;17990;49.548;9.730;2023-05-18T09:54:01;18.90;78.60
16736;DHT22;17990;49.548;9.730;2023-05-18T09:56:30;19.20;76.80
16736;DHT22;17990;49.548;9.730;2023-05-18T09:59:09;18.70;74.70
16736;DHT22;17990;49.548;9.730;2023-05-18T10:01:37;17.70;77.00
16736;DHT22;17990;49.548;9.730;2023-05-18T10:04:20;17.40;77.50
16736;DHT22;17990;49.548;9.730;2023-05-18T10:06:48;17.90;77.30
16736;DHT22;17990;49.548;9.730;2023-05-18T10:09:16;18.20;72.50
16736;DHT22;17990;49.548;9.730;2023-05-18T10:11:43;18.20;73.30
16736;DHT22;17990;49.548;9.730;2023-05-18T10:14:11;18.10;71.30
16736;DHT22;17990;49.548;9.730;2023-05-18T10:16:39;18.00;71.80
16736;DHT22;17990;49.548;9.730;2023-05-18T10:19:07;17.90;72.90
16736;DHT22;17990;49.548;9.730;2023-05-18T10:21:37;17.70;74.50
16736;DHT22;17990;49.548;9.730;2023-05-18T10:24:07;17.80;74.90
16736;DHT22;17990;49.548;9.730;2023-05-18T10:26:37;17.80;75.10
16736;DHT22;17990;49.548;9.730;2023-05-18T10:29:05;18.30;72.50
16736;DHT22;17990;49.548;9.730;2023-05-18T10:31:34;18.50;74.20
16736;DHT22;17990;49.548;9.730;2023-05-18T10:34:03;18.30;74.30
16736;DHT22;17990;49.548;9.730;2023-05-18T10:36:31;18.60;72.70
16736;DHT22;17990;49.548;9.730;2023-05-18T10:39:02;18.60;71.70
16736;DHT22;17990;49.548;9.730;2023-05-18T10:41:30;18.50;73.80
16736;DHT22;17990;49.548;9.730;2023-05-18T10:43:58;17.60;73.60
16736;DHT22;17990;49.548;9.730;2023-05-18T10:46:28;17.50;74.10
16736;DHT22;17990;49.548;9.730;2023-05-18T10:48:58;17.50;74.70
16736;DHT22;17990;49.548;9.730;2023-05-18T10:51:28;17.70;75.20
16736;DHT22;17990;49.548;9.730;2023-05-18T10:54:06;18.10;73.20
16736;DHT22;17990;49.548;9.730;2023-05-18T10:56:38;18.50;71.40
16736;DHT22;17990;49.548;9.730;2023-05-18T10:59:06;18.70;71.60
16736;DHT22;17990;49.548;9.730;2023-05-18T11:01:34;19.10;71.90
16736;DHT22;17990;49.548;9.730;2023-05-18T11:04:03;18.90;71.30
16736;DHT22;17990;49.548;9.730;2023-05-18T11:06:30;18.80;71.90
16736;DHT22;17990;49.548;9.730;2023-05-18T11:09:00;18.90;72.20
16736;DHT22;17990;49.548;9.730;2023-05-18T11:11:28;19.00;70.50
16736;DHT22;17990;49.548;9.730;2023-05-18T11:13:59;18.90;70.80
16736;DHT22;17990;49.548;9.730;2023-05-18T11:16:32;18.70;71.50
16736;DHT22;17990;49.548;9.730;2023-05-18T11:19:06;18.70;71.20
16736;DHT22;17990;49.548;9.730;2023-05-18T11:21:52;18.60;70.70
16736;DHT22;17990;49.548;9.730;2023-05-18T11:24:24;19.10;70.20
16736;DHT22;17990;49.548;9.730;2023-05-18T11:26:56;19.70;71.30
16736;DHT22;17990;49.548;9.730;2023-05-18T11:29:30;19.70;70.80
16736;DHT22;17990;49.548;9.730;2023-05-18T11:31:58;19.40;71.20
16736;DHT22;17990;49.548;9.730;2023-05-18T11:34:39;19.20;70.70
16736;DHT22;17990;49.548;9.730;2023-05-18T11:37:09;19.30;71.30
16736;DHT22;17990;49.548;9.730;2023-05-18T11:39:37;19.50;72.80
16736;DHT22;17990;49.548;9.730;2023-05-18T11:42:08;19.50;71.80
16736;DHT22;17990;49.548;9.730;2023-05-18T11:44:37;19.40;71.90
16736;DHT22;17990;49.548;9.730;2023-05-18T11:47:07;19.80;71.30
16736;DHT22;17990;49.548;9.730;2023-05-18T11:49:44;19.00;71.80
16736;DHT22;17990;49.548;9.730;2023-05-18T11:52:18;19.00;74.40
16736;DHT22;17990;49.548;9.730;2023-05-18T11:54:49;18.80;73.70
16736;DHT22;17990;49.548;9.730;2023-05-18T11:57:18;18.40;73.40
16736;DHT22;17990;49.548;9.730;2023-05-18T11:59:47;18.30;74.00
16736;DHT22;17990;49.548;9.730;2023-05-18T12:02:19;18.50;72.90
16736;DHT22;17990;49.548;9.730;2023-05-18T12:04:51;18.60;72.20
16736;DHT22;17990;49.548;9.730;2023-05-18T12:07:19;18.80;71.30
16736;DHT22;17990;49.548;9.730;2023-05-18T12:09:47;19.10;70.00
16736;DHT22;17990;49.548;9.730;2023-05-18T12:12:16;19.40;71.60
16736;DHT22;17990;49.548;9.730;2023-05-18T12:14:48;19.20;71.00
16736;DHT22;17990;49.548;9.730;2023-05-18T12:17:19;19.40;72.00
16736;DHT22;17990;49.548;9.730;2023-05-18T12:19:49;19.00;73.70
16736;DHT22;17990;49.548;9.730;2023-05-18T12:22:16;18.70;73.50
16736;DHT22;17990;49.548;9.730;2023-05-18T12:24:43;18.60;73.50
16736;DHT22;17990;49.548;9.730;2023-05-18T12:27:11;18.80;71.40
16736;DHT22;17990;49.548;9.730;2023-05-18T12:29:39;19.20;71.00
16736;DHT22;17990;49.548;9.730;2023-05-18T12:32:07;19.30;72.30
16736;DHT22;17990;49.548;9.730;2023-05-18T12:34:36;19.50;73.70
16736;DHT22;17990;49.548;9.730;2023-05-18T12:37:05;19.30;71.80
16736;DHT22;17990;49.548;9.730;2023-05-18T12:39:33;19.10;73.00
16736;DHT22;17990;49.548;9.730;2023-05-18T12:42:11;19.20;73.30
16736;DHT22;17990;49.548;9.730;2023-05-18T12:44:41;19.20;71.40
16736;DHT22;17990;49.548;9.730;2023-05-18T12:47:11;19.00;72.80
16736;DHT22;17990;49.548;9.730;2023-05-18T12:49:40;18.80;74.50
16736;DHT22;17990;49.548;9.730;2023-05-18T12:52:10;18.70;74.70
16736;DHT22;17990;49.548;9.730;2023-05-18T12:54:48;18.80;73.40
16736;DHT22;17990;49.548;9.730;2023-05-18T12:57:20;19.10;73.20
16736;DHT22;17990;49.548;9.730;2023-05-18T12:59:50;19.10;71.80
16736;DHT22;17990;49.548;9.730;2023-05-18T13:02:29;18.90;74.00
16736;DHT22;17990;49.548;9.730;2023-05-18T13:05:07;18.90;73.20
16736;DHT22;17990;49.548;9.730;2023-05-18T13:07:38;18.70;73.60
16736;DHT22;17990;49.548;9.730;2023-05-18T13:10:07;18.50;74.10
16736;DHT22;17990;49.548;9.730;2023-05-18T13:12:38;18.40;71.90
16736;DHT22;17990;49.548;9.730;2023-05-18T13:15:14;18.40;71.80
16736;DHT22;17990;49.548;9.730;2023-05-18T13:17:53;18.40;71.20
16736;DHT22;17990;49.548;9.730;2023-05-18T13:20:22;18.70;70.60
16736;DHT22;17990;49.548;9.730;2023-05-18T13:22:50;18.90;72.80
16736;DHT22;17990;49.548;9.730;2023-05-18T13:25:17;19.00;72.00
16736;DHT22;17990;49.548;9.730;2023-05-18T13:27:44;18.90;72.70
16736;DHT22;17990;49.548;9.730;2023-05-18T13:30:13;18.60;73.70
16736;DHT22;17990;49.548;9.730;2023-05-18T13:32:40;18.60;73.80
16736;DHT22;17990;49.548;9.730;2023-05-18T13:35:07;18.80;73.90
16736;DHT22;17990;49.548;9.730;2023-05-18T13:37:35;19.00;70.80
16736;DHT22;17990;49.548;9.730;2023-05-18T13:40:05;18.90;72.80
16736;DHT22;17990;49.548;9.730;2023-05-18T13:42:32;18.80;71.00
16736;DHT22;17990;49.548;9.730;2023-05-18T13:44:59;19.00;71.20
16736;DHT22;17990;49.548;9.730;2023-05-18T13:47:26;19.30;70.60
16736;DHT22;17990;49.548;9.730;2023-05-18T13:49:53;19.20;70.20
16736;DHT22;17990;49.548;9.730;2023-05-18T13:52:20;19.20;70.60
16736;DHT22;17990;49.548;9.730;2023-05-18T13:54:47;19.20;70.70
16736;DHT22;17990;49.548;9.730;2023-05-18T13:57:15;19.20;70.80
16736;DHT22;17990;49.548;9.730;2023-05-18T13:59:42;19.20;70.20
16736;DHT22;17990;49.548;9.730;2023-05-18T14:02:09;19.30;69.30
16736;DHT22;17990;49.548;9.730;2023-05-18T14:04:36;19.50;70.10
16736;DHT22;17990;49.548;9.730;2023-05-18T14:07:03;19.30;70.60
16736;DHT22;17990;49.548;9.730;2023-05-18T14:09:30;19.50;70.60
16736;DHT22;17990;49.548;9.730;2023-05-18T14:11:57;19.50;70.90
16736;DHT22;17990;49.548;9.730;2023-05-18T14:14:25;19.60;70.30
16736;DHT22;17990;49.548;9.730;2023-05-18T14:16:52;19.50;70.90
16736;DHT22;17990;49.548;9.730;2023-05-18T14:19:19;19.30;70.70
16736;DHT22;17990;49.548;9.730;2023-05-18T14:21:46;19.40;71.50
16736;DHT22;17990;49.548;9.730;2023-05-18T14:24:13;19.20;69.50
16736;DHT22;17990;49.548;9.730;2023-05-18T14:26:40;18.80;72.20
16736;DHT22;17990;49.548;9.730;2023-05-18T14:29:07;18.70;71.40
16736;DHT22;17990;49.548;9.730;2023-05-18T14:31:35;18.60;72.50
16736;DHT22;17990;49.548;9.730;2023-05-18T14:34:02;18.90;71.50
16736;DHT22;17990;49.548;9.730;2023-05-18T14:36:29;19.10;71.60
16736;DHT22;17990;49.548;9.730;2023-05-18T14:38:56;19.50;70.40
16736;DHT22;17990;49.548;9.730;2023-05-18T14:41:23;19.80;69.40
16736;DHT22;17990;49.548;9.730;2023-05-18T14:43:50;19.90;70.00
16736;DHT22;17990;49.548;9.730;2023-05-18T14:46:18;20.00;70.70
16736;DHT22;17990;49.548;9.730;2023-05-18T14:48:46;19.80;70.00
16736;DHT22;17990;49.548;9.730;2023-05-18T14:51:13;19.30;69.90
16736;DHT22;17990;49.548;9.730;2023-05-18T14:53:40;19.40;71.40
16736;DHT22;17990;49.548;9.730;2023-05-18T14:56:07;19.50;70.90
16736;DHT22;17990;49.548;9.730;2023-05-18T14:58:35;19.70;69.90
16736;DHT22;17990;49.548;9.730;2023-05-18T15:01:02;19.70;67.70
16736;DHT22;17990;49.548;9.730;2023-05-18T15:03:29;19.90;68.50
16736;DHT22;17990;49.548;9.730;2023-05-18T15:05:57;19.90;67.80
16736;DHT22;17990;49.548;9.730;2023-05-18T15:08:24;20.40;69.10
16736;DHT22;17990;49.548;9.730;2023-05-18T15:10:51;20.60;68.80
16736;DHT22;17990;49.548;9.730;2023-05-18T15:13:18;20.50;69.20
16736;DHT22;17990;49.548;9.730;2023-05-18T15:15:45;20.50;69.40
16736;DHT22;17990;49.548;9.730;2023-05-18T15:18:12;20.00;70.70
16736;DHT22;17990;49.548;9.730;2023-05-18T15:20:39;19.60;71.60
16736;DHT22;17990;49.548;9.730;2023-05-18T15:23:09;19.60;70.30
16736;DHT22;17990;49.548;9.730;2023-05-18T15:25:36;19.60;70.10
16736;DHT22;17990;49.548;9.730;2023-05-18T15:28:03;19.60;70.40
16736;DHT22;17990;49.548;9.730;2023-05-18T15:30:30;19.50;69.60
16736;DHT22;17990;49.548;9.730;2023-05-18T15:32:57;19.50;69.50
16736;DHT22;17990;49.548;9.730;2023-05-18T15:35:26;19.70;70.00
16736;DHT22;17990;49.548;9.730;2023-05-18T15:37:53;19.80;69.40
16736;DHT22;17990;49.548;9.730;2023-05-18T15:40:21;20.30;68.10
16736;DHT22;17990;49.548;9.730;2023-05-18T15:42:48;20.30;69.10